createdAt,value
2019-02-28T00:01:51.013Z,56.67
2019-02-28T00:06:55.137Z,50.90
2019-02-28T00:11:59.193Z,50.23
2019-02-28T00:17:06.227Z,45.97
2019-02-28T00:22:11.433Z,55.77
2019-02-28T00:27:15.167Z,61.37
2019-02-28T00:32:21.427Z,76.63
2019-02-28T00:37:25.742Z,70.83
2019-02-28T00:42:29.850Z,66.90
2019-02-28T00:47:34.352Z,54.33
2019-02-28T00:52:38.717Z,47.73
2019-02-28T00:57:43.242Z,31.50
2019-02-28T01:02:52.143Z,49.70
2019-02-28T01:07:53.348Z,50.80
2019-02-28T01:12:57.754Z,48.57
2019-02-28T01:18:01.817Z,48.00
2019-02-28T01:23:05.991Z,57.97
2019-02-28T01:28:10.222Z,51.37
2019-02-28T01:33:14.357Z,39.53
2019-02-28T01:38:18.627Z,33.90
2019-02-28T01:43:28.528Z,25.17
2019-02-28T01:48:28.683Z,46.93
2019-02-28T01:53:32.906Z,42.60
2019-02-28T01:58:37.077Z,39.37
2019-02-28T02:03:41.766Z,35.63
2019-02-28T02:08:46.057Z,39.27
2019-02-28T02:13:50.362Z,34.77
2019-02-28T02:18:54.602Z,34.53
2019-02-28T02:23:58.917Z,32.70
2019-02-28T02:29:03.134Z,25.83
2019-02-28T02:34:07.471Z,29.03
2019-02-28T02:39:16.355Z,33.53
2019-02-28T02:44:17.584Z,36.97
2019-02-28T02:49:21.798Z,33.50
2019-02-28T02:54:26.005Z,36.90
2019-02-28T02:59:37.269Z,32.20
2019-02-28T03:04:36.024Z,29.23
2019-02-28T03:09:43.298Z,21.40
2019-02-28T03:14:48.790Z,25.40
2019-02-28T03:19:52.211Z,30.97
2019-02-28T03:24:56.378Z,36.63
2019-02-28T03:30:00.864Z,39.73
2019-02-28T03:35:05.817Z,30.00
2019-02-28T03:40:10.380Z,33.83
2019-02-28T03:45:15.588Z,33.70
2019-02-28T03:50:21.917Z,32.13
2019-02-28T03:55:25.797Z,31.47
2019-02-28T04:00:34.027Z,20.47
2019-02-28T04:05:36.245Z,18.70
2019-02-28T04:10:40.456Z,14.00
2019-02-28T04:16:01.326Z,24.83
2019-02-28T04:20:50.862Z,22.47
2019-02-28T04:25:56.785Z,17.27
2019-02-28T04:31:00.883Z,15.80
2019-02-28T04:36:05.166Z,22.03
2019-02-28T04:41:09.409Z,27.43
2019-02-28T04:46:13.527Z,29.73
2019-02-28T04:51:17.662Z,21.73
2019-02-28T04:56:21.903Z,29.60
2019-02-28T05:01:26.391Z,28.90
2019-02-28T05:06:31.598Z,19.60
2019-02-28T05:11:35.904Z,17.47
2019-02-28T05:16:40.150Z,30.60
2019-02-28T05:21:44.317Z,29.60
2019-02-28T05:26:48.522Z,19.67
2019-02-28T05:31:52.831Z,27.23
2019-02-28T05:36:57.046Z,28.73
2019-02-28T05:42:01.182Z,16.53
2019-02-28T05:47:05.417Z,28.63
2019-02-28T05:52:09.612Z,32.37
2019-02-28T05:57:13.881Z,29.40
2019-02-28T06:02:22.400Z,34.07
2019-02-28T06:07:25.924Z,34.37
2019-02-28T06:12:30.601Z,24.80
2019-02-28T06:17:35.004Z,28.43
2019-02-28T06:22:39.194Z,46.07
2019-02-28T06:27:49.063Z,43.17
2019-02-28T06:32:49.419Z,14.03
2019-02-28T06:37:53.667Z,34.03
2019-02-28T06:42:57.994Z,13.70
2019-02-28T06:48:02.012Z,45.43
2019-02-28T06:53:06.192Z,55.00
2019-02-28T06:58:10.211Z,37.03
2019-02-28T07:03:14.607Z,42.93
2019-02-28T07:08:20.680Z,40.77
2019-02-28T07:13:24.801Z,46.53
2019-02-28T07:18:29.061Z,50.77
2019-02-28T07:23:33.577Z,39.30
2019-02-28T07:28:37.846Z,38.27
2019-02-28T07:33:44.533Z,48.70
2019-02-28T07:38:47.853Z,57.10
2019-02-28T07:43:52.137Z,43.00
2019-02-28T07:48:56.421Z,17.73
2019-02-28T07:54:01.620Z,22.47
2019-02-28T07:59:06.377Z,4.70
2019-02-28T08:04:10.857Z,8.77
2019-02-28T08:09:25.435Z,6.93
2019-02-28T08:14:29.596Z,12.83
2019-02-28T08:19:34.963Z,16.53
2019-02-28T08:24:39.286Z,3.90
2019-02-28T08:29:45.749Z,6.17
2019-02-28T08:34:49.186Z,7.90
2019-02-28T08:39:54.637Z,12.00
2019-02-28T08:44:59.196Z,12.20
2019-02-28T08:50:03.574Z,9.30
2019-02-28T08:55:10.048Z,31.13
2019-02-28T09:00:16.646Z,20.07
2019-02-28T09:05:25.512Z,20.53
2019-02-28T09:10:27.141Z,19.80
2019-02-28T09:15:31.466Z,26.87
2019-02-28T09:20:35.919Z,19.93
2019-02-28T09:25:40.112Z,26.03
2019-02-28T09:30:44.313Z,26.87
2019-02-28T09:35:50.803Z,31.17
2019-02-28T09:40:55.098Z,32.87
2019-02-28T09:45:59.263Z,36.23
2019-02-28T09:51:04.013Z,31.30
2019-02-28T09:56:09.274Z,31.30
2019-02-28T10:01:14.097Z,37.57
2019-02-28T10:06:18.525Z,42.13
2019-02-28T10:11:22.589Z,39.90
2019-02-28T10:16:26.996Z,36.17
2019-02-28T10:21:33.308Z,38.40
2019-02-28T10:26:37.277Z,34.23
2019-02-28T10:31:41.346Z,49.97
2019-02-28T10:36:47.772Z,42.90
2019-02-28T10:41:51.521Z,37.63
2019-02-28T10:46:55.817Z,37.77
2019-02-28T10:51:59.958Z,35.30
2019-02-28T10:57:06.133Z,33.57
2019-02-28T11:02:10.228Z,34.47
2019-02-28T11:07:14.459Z,23.60
2019-02-28T11:12:20.311Z,32.23
2019-02-28T11:17:24.722Z,29.10
2019-02-28T11:22:28.902Z,25.17
2019-02-28T11:27:33.232Z,22.97
2019-02-28T11:32:37.574Z,30.57
2019-02-28T11:37:42.308Z,27.80
2019-02-28T11:42:47.918Z,31.10
2019-02-28T11:47:53.368Z,34.10
2019-02-28T11:53:03.283Z,29.20
2019-02-28T11:58:03.787Z,28.73
2019-02-28T12:03:08.377Z,40.53
2019-02-28T12:08:12.742Z,28.50
2019-02-28T12:13:19.687Z,27.13
2019-02-28T12:18:22.872Z,30.87
2019-02-28T12:23:27.087Z,35.43
2019-02-28T12:28:35.270Z,23.07
2019-02-28T12:33:39.954Z,30.60
2019-02-28T12:38:44.184Z,34.97
2019-02-28T12:43:48.570Z,28.47
2019-02-28T12:48:53.030Z,35.27
2019-02-28T12:53:59.205Z,26.13
2019-02-28T12:59:03.495Z,31.03
2019-02-28T13:04:07.737Z,30.37
2019-02-28T13:09:13.583Z,26.90
2019-02-28T13:14:17.787Z,23.17
2019-02-28T13:19:24.136Z,20.17
2019-02-28T13:24:27.991Z,22.37
2019-02-28T13:29:33.929Z,27.77
2019-02-28T13:34:38.575Z,28.97
2019-02-28T13:39:44.715Z,21.30
2019-02-28T13:44:51.813Z,20.43
2019-02-28T13:49:55.992Z,25.77
2019-02-28T13:55:00.581Z,22.47
2019-02-28T14:00:09.347Z,24.97
2019-02-28T14:05:13.669Z,26.40
2019-02-28T14:10:18.041Z,30.93
2019-02-28T14:15:25.270Z,27.13
2019-02-28T14:20:29.781Z,25.43
2019-02-28T14:25:36.225Z,31.73
2019-02-28T14:30:39.851Z,23.63
2019-02-28T14:35:45.022Z,44.47
2019-02-28T14:40:49.648Z,31.83
2019-02-28T14:45:55.402Z,28.30
2019-02-28T14:50:59.527Z,32.47
2019-02-28T15:01:16.810Z,30.83
2019-02-28T15:06:20.282Z,38.47
2019-02-28T15:11:25.661Z,35.70
2019-02-28T15:16:30.461Z,47.13
2019-02-28T15:21:34.882Z,28.30
2019-02-28T15:26:39.369Z,25.77
2019-02-28T15:31:44.270Z,30.23
2019-02-28T15:36:48.542Z,40.90
2019-02-28T15:41:52.927Z,30.23
2019-02-28T15:46:57.101Z,23.10
2019-02-28T15:52:01.907Z,27.47
2019-02-28T15:57:07.558Z,27.00
2019-02-28T16:02:11.888Z,28.70
2019-02-28T16:07:18.783Z,26.40
2019-02-28T16:12:23.140Z,26.37
2019-02-28T16:17:27.453Z,23.37
2019-02-28T16:22:31.734Z,28.30
2019-02-28T16:27:42.603Z,14.63
2019-02-28T16:32:49.134Z,22.33
2019-02-28T16:37:52.773Z,17.67
2019-02-28T16:42:57.105Z,17.87
2019-02-28T16:48:02.984Z,27.77
2019-02-28T16:53:07.302Z,24.83
2019-02-28T16:58:11.533Z,38.40
2019-02-28T17:03:16.001Z,37.73
2019-02-28T17:08:20.440Z,41.40
2019-02-28T17:13:25.713Z,31.90
2019-02-28T17:18:30.029Z,29.90
2019-02-28T17:23:37.016Z,33.10
2019-02-28T17:28:40.489Z,30.07
2019-02-28T17:33:46.905Z,27.47
2019-02-28T17:38:51.033Z,28.40
2019-02-28T17:44:13.193Z,29.10
2019-02-28T17:49:30.287Z,19.43
2019-02-28T17:54:57.377Z,18.93
2019-02-28T18:00:29.230Z,35.03
2019-02-28T18:05:51.921Z,33.27
2019-02-28T18:11:17.116Z,43.33
2019-02-28T18:16:39.952Z,25.13
2019-02-28T18:21:52.738Z,32.70
2019-02-28T18:27:22.917Z,23.00
2019-02-28T18:32:29.794Z,38.87
2019-02-28T18:37:33.098Z,25.07
2019-02-28T18:42:37.277Z,25.80
2019-02-28T18:47:41.412Z,19.53
2019-02-28T18:52:48.133Z,21.37
2019-02-28T18:57:52.440Z,21.27
2019-02-28T19:02:56.657Z,20.90
2019-02-28T19:08:00.849Z,25.90
2019-02-28T19:13:05.322Z,25.67
2019-02-28T19:18:09.729Z,19.97
2019-02-28T19:23:14.087Z,33.20
2019-02-28T19:28:18.267Z,33.23
2019-02-28T19:33:22.463Z,31.77
2019-02-28T19:38:26.522Z,33.03
2019-02-28T19:43:30.990Z,23.13
2019-02-28T19:48:35.138Z,26.33
2019-02-28T19:53:39.325Z,27.23
2019-02-28T19:58:43.817Z,29.23
2019-02-28T20:03:49.069Z,36.70
2019-02-28T20:08:53.498Z,22.43
2019-02-28T20:13:57.812Z,26.97
2019-02-28T20:19:02.163Z,23.70
2019-02-28T20:24:07.509Z,15.93
2019-02-28T20:29:11.889Z,27.83
2019-02-28T20:34:16.257Z,28.43
2019-02-28T20:39:20.597Z,18.47
2019-02-28T20:44:24.930Z,26.40
2019-02-28T20:49:29.192Z,20.40
2019-02-28T20:54:33.717Z,18.07
2019-02-28T20:59:37.941Z,25.17
2019-02-28T21:04:42.147Z,28.33
2019-02-28T21:09:46.303Z,26.93
2019-02-28T21:14:50.437Z,25.93
2019-02-28T21:19:55.899Z,25.97
2019-02-28T21:25:00.288Z,25.43
2019-02-28T21:30:07.067Z,25.20
2019-02-28T21:35:11.667Z,29.50
2019-02-28T21:40:16.398Z,30.87
2019-02-28T21:45:20.942Z,28.07
2019-02-28T21:50:25.167Z,22.73
2019-02-28T21:55:29.497Z,20.10
2019-02-28T22:00:33.727Z,23.73
2019-02-28T22:05:38.115Z,19.90
2019-02-28T22:10:42.601Z,30.60
2019-02-28T22:15:46.763Z,31.17
2019-02-28T22:20:52.198Z,32.30
2019-02-28T22:25:56.422Z,29.17
2019-02-28T22:31:00.897Z,32.37
2019-02-28T22:36:05.499Z,27.63
2019-02-28T22:41:09.637Z,33.43
2019-02-28T22:46:13.797Z,38.47
2019-02-28T22:51:17.934Z,37.33
2019-02-28T22:56:22.257Z,37.80
2019-02-28T23:01:26.848Z,32.10
2019-02-28T23:06:31.082Z,36.17
2019-02-28T23:11:35.302Z,41.97
2019-02-28T23:16:39.637Z,40.83
2019-02-28T23:21:43.870Z,37.77
2019-02-28T23:27:05.097Z,32.93
2019-02-28T23:32:23.179Z,33.03
2019-02-28T23:37:27.380Z,34.60
2019-02-28T23:42:31.516Z,47.70
2019-02-28T23:47:35.952Z,38.93
2019-02-28T23:52:40.116Z,34.53
2019-02-28T23:57:44.463Z,38.73
